Time;durP1;ratioP1;P1;durP2;ratioP2;P2;SDS_P1;SDS_P2;PMS_P1;PMS_P2;Temp;Humidity;BMP_temperature;BMP_pressure;BME280_temperature;BME280_humidity;BME280_pressure;Samples;Min_cycle;Max_cycle;Signal;HPM_P1;HPM_P2
2022/06/25 00:01:48;;;;;;;13.20;7.60;;;15.90;99.90;;;;;;5017184;28;20229;-94
2022/06/25 00:06:58;;;;;;;10.40;6.50;;;15.90;99.90;;;;;;5016525;28;20223;-93
2022/06/25 00:09:24;;;;;;;8.37;5.53;;;15.80;99.90;;;;;;5032672;28;20287;-93
2022/06/25 00:14:35;;;;;;;9.70;7.00;;;15.60;99.90;;;;;;5016810;28;20231;-92
2022/06/25 00:17:01;;;;;;;9.77;6.63;;;15.50;99.90;;;;;;5018775;28;20344;-91
2022/06/25 00:19:27;;;;;;;10.77;7.60;;;15.40;99.90;;;;;;5018048;28;20674;-93
2022/06/25 00:21:53;;;;;;;12.03;9.07;;;15.40;99.90;;;;;;5018909;28;20793;-93
2022/06/25 00:24:18;;;;;;;12.13;7.33;;;15.40;99.90;;;;;;5015297;28;20272;-91
2022/06/25 00:26:44;;;;;;;12.70;8.23;;;15.30;99.90;;;;;;5049332;28;20254;-92
2022/06/25 00:29:10;;;;;;;15.33;9.47;;;15.40;99.90;;;;;;5019435;28;20205;-92
2022/06/25 00:31:37;;;;;;;11.90;8.60;;;15.40;99.90;;;;;;5017078;28;20186;-91
2022/06/25 00:34:03;;;;;;;13.30;8.93;;;15.40;99.90;;;;;;5017410;28;20214;-91
2022/06/25 00:36:29;;;;;;;13.00;9.70;;;15.50;99.90;;;;;;4999096;28;20342;-93
2022/06/25 00:38:55;;;;;;;12.60;9.07;;;15.50;99.90;;;;;;5014694;28;20329;-91
2022/06/25 00:41:21;;;;;;;14.20;9.87;;;15.50;99.90;;;;;;5015098;28;20200;-90
2022/06/25 00:43:47;;;;;;;15.83;8.87;;;15.40;99.90;;;;;;5018447;28;20199;-93
2022/06/25 00:46:13;;;;;;;17.37;10.10;;;15.40;99.90;;;;;;5015718;28;20678;-94
2022/06/25 00:48:39;;;;;;;14.33;10.10;;;15.40;99.90;;;;;;5016680;28;20231;-93
2022/06/25 00:51:10;;;;;;;16.80;10.90;;;15.50;99.90;;;;;;5030626;28;20227;-93
2022/06/25 00:53:43;;;;;;;13.33;9.53;;;15.60;99.90;;;;;;5016271;28;20334;-94
2022/06/25 00:56:11;;;;;;;13.57;8.57;;;15.50;99.90;;;;;;5014915;28;20202;-93
2022/06/25 00:58:39;;;;;;;16.20;10.60;;;15.50;99.90;;;;;;5017968;28;20772;-92
2022/06/25 01:01:08;;;;;;;16.63;10.03;;;15.30;99.90;;;;;;5015607;28;20778;-90
2022/06/25 01:03:37;;;;;;;22.83;9.63;;;15.40;99.90;;;;;;5000377;28;20300;-90
2022/06/25 01:06:04;;;;;;;16.50;10.03;;;15.30;99.90;;;;;;5016028;28;20263;-90
2022/06/25 01:08:31;;;;;;;24.20;10.70;;;15.40;99.90;;;;;;5015147;28;20231;-93
2022/06/25 01:10:57;;;;;;;22.83;10.57;;;15.40;99.90;;;;;;5017491;28;20202;-94
2022/06/25 01:13:23;;;;;;;18.90;11.07;;;15.40;99.90;;;;;;5016270;28;20219;-91
2022/06/25 01:15:50;;;;;;;17.20;11.37;;;15.40;99.90;;;;;;5015260;28;20219;-92
2022/06/25 01:18:16;;;;;;;18.07;12.20;;;15.50;99.90;;;;;;5014283;28;20222;-90
2022/06/25 01:20:44;;;;;;;21.13;12.47;;;15.60;99.90;;;;;;5016369;28;20219;-93
2022/06/25 01:23:12;;;;;;;19.37;13.50;;;15.70;99.90;;;;;;5015308;28;20696;-93
2022/06/25 01:25:39;;;;;;;26.77;14.80;;;15.90;99.90;;;;;;5050347;28;20188;-93
2022/06/25 01:28:06;;;;;;;35.03;16.13;;;16.10;99.90;;;;;;5014401;28;20239;-92
2022/06/25 01:30:33;;;;;;;26.53;14.57;;;16.20;99.90;;;;;;5015240;28;20230;-92
2022/06/25 01:32:59;;;;;;;27.77;16.10;;;16.30;99.90;;;;;;5017110;28;20214;-91
2022/06/25 01:35:25;;;;;;;27.23;16.33;;;16.30;99.90;;;;;;5014600;28;20187;-88
2022/06/25 01:37:51;;;;;;;21.77;14.43;;;16.30;99.90;;;;;;5016180;28;20191;-89
2022/06/25 01:40:16;;;;;;;27.10;16.23;;;16.20;99.90;;;;;;5016790;28;20226;-92
2022/06/25 01:42:58;;;;;;;22.10;14.07;;;16.20;99.90;;;;;;5048350;28;20219;-92
2022/06/25 01:45:24;;;;;;;23.50;14.70;;;16.30;99.90;;;;;;5049017;28;20215;-93
2022/06/25 01:47:50;;;;;;;31.60;13.77;;;16.30;99.90;;;;;;5014585;28;20258;-93
2022/06/25 01:50:17;;;;;;;22.83;13.83;;;16.20;99.90;;;;;;5017364;28;20199;-93
2022/06/25 01:52:48;;;;;;;21.57;14.07;;;16.30;99.90;;;;;;5031394;28;20189;-91
2022/06/25 01:55:15;;;;;;;23.93;14.73;;;16.30;99.90;;;;;;5012327;28;20794;-93
2022/06/25 01:57:41;;;;;;;25.43;14.70;;;16.30;99.90;;;;;;5022259;28;20945;-91
2022/06/25 02:00:13;;;;;;;23.23;14.60;;;16.30;99.90;;;;;;5015650;28;20296;-90
2022/06/25 02:02:39;;;;;;;26.13;14.43;;;16.40;99.90;;;;;;5014171;28;20752;-90
2022/06/25 02:05:06;;;;;;;29.60;14.57;;;16.40;99.90;;;;;;5014106;28;20183;-90
2022/06/25 02:07:32;;;;;;;27.03;14.43;;;16.40;99.90;;;;;;5014297;28;20325;-90
2022/06/25 02:09:58;;;;;;;22.03;13.77;;;16.40;99.90;;;;;;5015628;28;20318;-90
2022/06/25 02:12:23;;;;;;;20.30;13.97;;;16.40;99.90;;;;;;5013272;28;20219;-91
2022/06/25 02:14:49;;;;;;;22.90;13.77;;;16.40;99.90;;;;;;5046752;28;20659;-88
2022/06/25 02:17:15;;;;;;;21.17;13.43;;;16.40;99.90;;;;;;5014248;28;20281;-89
2022/06/25 02:19:41;;;;;;;25.10;14.87;;;16.40;99.90;;;;;;5015357;28;20191;-90
2022/06/25 02:22:07;;;;;;;22.10;13.47;;;16.40;99.90;;;;;;5011466;28;20233;-89
2022/06/25 02:24:33;;;;;;;18.80;12.57;;;16.40;99.90;;;;;;5014161;28;20215;-92
2022/06/25 02:26:59;;;;;;;24.07;13.83;;;16.50;99.90;;;;;;5046518;28;20219;-90
2022/06/25 02:29:25;;;;;;;25.60;15.30;;;16.50;99.90;;;;;;5030336;28;20203;-91
2022/06/25 02:31:51;;;;;;;20.03;12.00;;;16.40;99.90;;;;;;5026522;28;20194;-91
2022/06/25 02:34:16;;;;;;;20.37;13.43;;;16.40;99.90;;;;;;5014673;28;20242;-90
2022/06/25 02:36:42;;;;;;;22.70;14.50;;;16.40;99.90;;;;;;5013189;28;20590;-92
2022/06/25 02:39:08;;;;;;;20.00;13.40;;;16.50;99.90;;;;;;5015742;28;20249;-91
2022/06/25 02:41:34;;;;;;;20.60;13.30;;;16.40;99.90;;;;;;5015946;28;20226;-88
2022/06/25 02:43:59;;;;;;;31.30;14.53;;;16.50;99.90;;;;;;5015824;28;20264;-88
2022/06/25 02:46:26;;;;;;;17.40;12.53;;;16.40;99.90;;;;;;4999293;28;20242;-89
2022/06/25 02:48:52;;;;;;;18.43;12.23;;;16.40;99.90;;;;;;5013474;28;20766;-91
2022/06/25 02:51:17;;;;;;;25.50;13.93;;;16.40;99.90;;;;;;5030607;28;20341;-89
2022/06/25 02:53:43;;;;;;;24.53;13.60;;;16.40;99.90;;;;;;5013623;28;20230;-86
2022/06/25 02:58:54;;;;;;;26.43;13.97;;;16.60;99.90;;;;;;5012595;28;20286;-89
2022/06/25 03:01:20;;;;;;;21.33;13.27;;;16.60;99.90;;;;;;5013059;28;20272;-89
2022/06/25 03:03:46;;;;;;;21.30;13.40;;;16.60;99.90;;;;;;5014327;28;20219;-90
2022/06/25 03:06:12;;;;;;;20.23;12.57;;;16.70;99.90;;;;;;5013648;28;20211;-89
2022/06/25 03:08:38;;;;;;;23.23;13.10;;;16.60;99.90;;;;;;5012306;28;20288;-91
2022/06/25 03:11:03;;;;;;;22.33;13.13;;;16.60;99.90;;;;;;4998972;28;20221;-87
2022/06/25 03:13:31;;;;;;;17.90;12.50;;;16.60;99.90;;;;;;5017089;28;20210;-86
2022/06/25 03:15:57;;;;;;;15.93;11.17;;;16.70;99.90;;;;;;5018459;28;20586;-91
2022/06/25 03:18:23;;;;;;;18.17;11.97;;;16.60;99.90;;;;;;5017023;28;20226;-89
2022/06/25 03:20:50;;;;;;;20.10;13.50;;;16.70;99.90;;;;;;5032134;28;20312;-90
2022/06/25 03:23:16;;;;;;;20.13;12.83;;;16.70;99.90;;;;;;5014512;28;20702;-90
2022/06/25 03:25:42;;;;;;;20.13;12.57;;;16.70;99.90;;;;;;5031727;28;20194;-90
2022/06/25 03:28:08;;;;;;;21.53;12.77;;;16.70;99.90;;;;;;5020317;28;20713;-90
2022/06/25 03:30:34;;;;;;;18.50;11.87;;;16.70;99.90;;;;;;5045782;28;20326;-88
2022/06/25 03:33:00;;;;;;;18.27;11.90;;;16.80;99.90;;;;;;5014788;28;20802;-91
2022/06/25 03:35:26;;;;;;;20.97;11.27;;;16.80;99.90;;;;;;5049389;28;20292;-91
2022/06/25 03:37:52;;;;;;;19.30;12.43;;;16.80;99.90;;;;;;5016484;28;20206;-86
2022/06/25 03:40:18;;;;;;;17.43;11.83;;;16.80;99.90;;;;;;5017324;28;20226;-91
2022/06/25 03:42:44;;;;;;;18.37;12.83;;;16.90;99.90;;;;;;5015587;28;20211;-89
2022/06/25 03:45:10;;;;;;;16.33;12.00;;;16.90;99.90;;;;;;5000188;28;20237;-89
2022/06/25 03:47:36;;;;;;;22.53;12.33;;;16.90;99.90;;;;;;5031913;28;20234;-90
2022/06/25 03:50:02;;;;;;;21.20;12.40;;;16.90;99.90;;;;;;5014130;28;20608;-87
2022/06/25 03:52:28;;;;;;;17.50;11.13;;;17.00;99.90;;;;;;5018157;28;20648;-91
2022/06/25 03:54:53;;;;;;;14.40;10.50;;;17.00;99.90;;;;;;5018155;28;20245;-90
2022/06/25 03:57:20;;;;;;;22.53;12.07;;;17.00;99.90;;;;;;5016375;28;20238;-87
2022/06/25 03:59:45;;;;;;;15.37;11.47;;;17.10;99.90;;;;;;5014659;28;20230;-91
2022/06/25 04:02:11;;;;;;;15.47;11.03;;;17.10;99.90;;;;;;4999322;28;20183;-90
2022/06/25 04:04:37;;;;;;;19.30;11.10;;;17.20;99.90;;;;;;5014315;28;20190;-91
2022/06/25 04:07:03;;;;;;;13.67;8.93;;;17.20;99.90;;;;;;5015298;28;20222;-87
2022/06/25 04:09:29;;;;;;;17.23;10.67;;;17.30;99.90;;;;;;5013247;28;20222;-88
2022/06/25 04:11:56;;;;;;;14.00;9.57;;;17.30;99.90;;;;;;5012958;28;20245;-90
2022/06/25 04:14:22;;;;;;;16.67;11.20;;;17.40;99.90;;;;;;5016025;28;20198;-90
2022/06/25 04:16:48;;;;;;;14.30;9.97;;;17.50;99.90;;;;;;5014884;28;20199;-89
2022/06/25 04:19:14;;;;;;;15.17;9.73;;;17.60;99.90;;;;;;5015281;28;20281;-90
2022/06/25 04:21:39;;;;;;;11.57;8.40;;;17.60;99.90;;;;;;4998746;28;20227;-86
2022/06/25 04:24:05;;;;;;;12.57;7.83;;;17.70;99.90;;;;;;5047777;28;20221;-92
2022/06/25 04:26:31;;;;;;;14.20;8.87;;;17.80;99.90;;;;;;5012781;28;20215;-91
2022/06/25 04:29:08;;;;;;;12.47;8.60;;;17.80;99.90;;;;;;4998440;28;20238;-90
2022/06/25 04:31:36;;;;;;;10.53;8.03;;;17.80;99.90;;;;;;5015290;28;20210;-90
2022/06/25 04:34:02;;;;;;;11.60;8.50;;;17.90;99.90;;;;;;5030157;28;20230;-91
2022/06/25 04:36:28;;;;;;;11.27;8.20;;;18.00;99.90;;;;;;4997309;28;21005;-86
2022/06/25 04:38:54;;;;;;;12.13;9.10;;;18.10;99.90;;;;;;5017142;28;20743;-89
2022/06/25 04:41:20;;;;;;;12.97;9.93;;;18.20;99.90;;;;;;5017281;28;20194;-91
2022/06/25 04:43:46;;;;;;;10.07;7.00;;;18.20;99.90;;;;;;5005443;28;20195;-88
2022/06/25 04:46:12;;;;;;;13.27;8.00;;;18.30;99.90;;;;;;5046595;28;20245;-91
2022/06/25 04:48:39;;;;;;;10.17;7.87;;;18.40;99.90;;;;;;5045455;28;20239;-88
2022/06/25 04:51:05;;;;;;;12.77;8.03;;;18.40;99.90;;;;;;5015791;28;20231;-89
2022/06/25 04:53:31;;;;;;;11.67;8.47;;;18.50;99.90;;;;;;5045290;28;20218;-91
2022/06/25 04:55:57;;;;;;;12.20;7.27;;;18.60;99.90;;;;;;5015879;28;20188;-86
2022/06/25 04:58:23;;;;;;;11.47;7.70;;;18.70;99.90;;;;;;5013249;28;20217;-88
2022/06/25 05:00:49;;;;;;;10.43;7.30;;;18.80;99.90;;;;;;5016543;28;20341;-89
2022/06/25 05:03:14;;;;;;;11.80;7.33;;;18.80;99.90;;;;;;5015765;28;20687;-91
2022/06/25 05:05:40;;;;;;;11.97;8.10;;;18.90;99.90;;;;;;4997752;28;20226;-91
2022/06/25 05:08:06;;;;;;;10.03;7.10;;;19.00;99.90;;;;;;5015197;28;20242;-87
2022/06/25 05:10:32;;;;;;;10.40;7.33;;;19.10;99.90;;;;;;5028722;28;20215;-91
2022/06/25 05:13:13;;;;;;;10.87;7.70;;;19.30;99.90;;;;;;5015815;28;20214;-90
2022/06/25 05:15:40;;;;;;;7.90;6.57;;;19.40;99.90;;;;;;5014269;28;20225;-92
2022/06/25 05:18:10;;;;;;;11.47;8.43;;;20.50;99.90;;;;;;5016733;28;20314;-90
2022/06/25 05:20:40;;;;;;;14.13;8.73;;;22.60;99.90;;;;;;5014273;28;20207;-94
2022/06/25 05:23:07;;;;;;;10.63;6.97;;;23.90;99.90;;;;;;5016406;28;20631;-93
2022/06/25 05:25:33;;;;;;;10.50;6.70;;;25.40;99.90;;;;;;4979920;28;20965;-88
2022/06/25 05:27:59;;;;;;;7.23;5.63;;;25.30;99.90;;;;;;5012080;28;20313;-91
2022/06/25 05:30:24;;;;;;;9.43;6.90;;;26.10;99.90;;;;;;5010557;28;20249;-87
2022/06/25 05:32:50;;;;;;;7.30;5.10;;;26.70;99.90;;;;;;5009767;28;20241;-85
2022/06/25 05:35:16;;;;;;;7.67;5.97;;;26.70;99.90;;;;;;5011244;28;20202;-89
2022/06/25 05:37:41;;;;;;;6.97;5.28;;;27.40;99.90;;;;;;5011280;28;20726;-89
2022/06/25 05:40:09;;;;;;;7.47;6.07;;;29.20;99.90;;;;;;5013305;28;20223;-90
2022/06/25 05:42:35;;;;;;;6.90;5.40;;;29.30;99.90;;;;;;5015028;28;20263;-86
2022/06/25 05:45:01;;;;;;;5.90;4.55;;;29.10;99.90;;;;;;5011008;28;20227;-89
2022/06/25 05:47:26;;;;;;;7.45;4.78;;;28.70;99.90;;;;;;4995374;28;20242;-89
2022/06/25 05:49:52;;;;;;;5.80;4.13;;;28.40;99.90;;;;;;5009471;28;20716;-89
2022/06/25 05:52:18;;;;;;;7.78;4.97;;;29.40;99.90;;;;;;5005482;28;20253;-87
2022/06/25 05:54:43;;;;;;;6.30;5.13;;;30.10;99.90;;;;;;5008328;28;20230;-86
2022/06/25 05:57:09;;;;;;;5.50;4.80;;;30.30;99.90;;;;;;5010187;28;20676;-87
2022/06/25 05:59:35;;;;;;;6.50;4.70;;;29.90;99.90;;;;;;5008394;28;21057;-87
2022/06/25 06:02:00;;;;;;;6.63;4.80;;;30.20;99.90;;;;;;4993033;28;20211;-87
2022/06/25 06:04:26;;;;;;;5.10;4.60;;;30.70;99.90;;;;;;5005580;28;20211;-88
2022/06/25 06:06:53;;;;;;;6.90;4.68;;;29.50;99.90;;;;;;5010780;28;20219;-88
2022/06/25 06:09:19;;;;;;;7.57;4.97;;;29.30;99.90;;;;;;5004262;28;20230;-88
2022/06/25 06:11:45;;;;;;;4.55;4.10;;;30.50;99.90;;;;;;5010028;28;20649;-86
2022/06/25 06:14:10;;;;;;;7.47;5.32;;;29.30;99.90;;;;;;5008840;28;20209;-87
2022/06/25 06:16:36;;;;;;;6.10;4.68;;;29.80;99.90;;;;;;5006978;28;20186;-86
2022/06/25 06:19:02;;;;;;;6.63;4.70;;;30.90;99.90;;;;;;5007783;28;20230;-86
2022/06/25 06:21:28;;;;;;;4.07;3.67;;;31.20;99.90;;;;;;5005378;28;20223;-89
2022/06/25 06:23:54;;;;;;;5.95;4.55;;;28.60;99.90;;;;;;5012100;28;21246;-84
2022/06/25 06:26:20;;;;;;;7.50;4.75;;;28.60;99.90;;;;;;5016288;28;20210;-86
2022/06/25 06:28:46;;;;;;;5.78;5.22;;;28.70;99.90;;;;;;5002841;28;20210;-85
2022/06/25 06:31:12;;;;;;;5.05;4.38;;;28.70;99.90;;;;;;5002677;28;20298;-85
2022/06/25 06:33:37;;;;;;;7.05;5.00;;;29.30;99.90;;;;;;5004221;28;20341;-83
2022/06/25 06:36:03;;;;;;;4.50;3.97;;;31.60;99.90;;;;;;5006035;28;20710;-86
2022/06/25 06:38:29;;;;;;;5.10;4.60;;;32.40;99.90;;;;;;5036790;28;20226;-87
2022/06/25 06:40:55;;;;;;;5.53;4.55;;;32.40;99.90;;;;;;5011397;28;20203;-84
2022/06/25 06:43:20;;;;;;;4.90;4.30;;;29.90;99.90;;;;;;5007144;28;20314;-87
2022/06/25 06:45:46;;;;;;;5.20;4.38;;;28.00;99.90;;;;;;5017303;28;20710;-86
2022/06/25 06:48:12;;;;;;;5.32;4.82;;;26.20;99.90;;;;;;5026247;28;20239;-84
2022/06/25 06:50:37;;;;;;;7.82;4.90;;;25.20;99.90;;;;;;5003626;28;20219;-82
2022/06/25 06:53:03;;;;;;;6.85;5.47;;;24.40;99.90;;;;;;5008492;28;20204;-81
2022/06/25 06:55:29;;;;;;;6.35;4.93;;;24.50;99.90;;;;;;5005936;28;20250;-85
2022/06/25 06:57:54;;;;;;;5.10;4.60;;;25.20;99.90;;;;;;5035643;28;20241;-84
2022/06/25 07:00:20;;;;;;;4.05;3.13;;;25.90;99.90;;;;;;5005518;28;20219;-84
2022/06/25 07:02:46;;;;;;;4.97;3.47;;;25.80;99.90;;;;;;5008111;28;20214;-85
2022/06/25 07:05:12;;;;;;;4.40;3.58;;;26.10;99.90;;;;;;5003506;28;20191;-83
2022/06/25 07:07:38;;;;;;;4.18;3.42;;;27.70;99.90;;;;;;5005021;28;20220;-84
2022/06/25 07:10:04;;;;;;;4.78;4.13;;;28.70;99.90;;;;;;5035998;28;20254;-83
2022/06/25 07:12:31;;;;;;;5.13;3.90;;;29.50;99.90;;;;;;5035949;28;20314;-84
2022/06/25 07:14:56;;;;;;;4.68;3.85;;;29.30;99.90;;;;;;5002378;28;20223;-83
2022/06/25 07:17:22;;;;;;;5.88;3.70;;;28.00;99.90;;;;;;5002754;28;20205;-83
2022/06/25 07:19:48;;;;;;;4.53;3.97;;;27.30;99.90;;;;;;5022629;28;20195;-84
2022/06/25 07:22:14;;;;;;;5.93;4.07;;;27.20;99.90;;;;;;5003565;28;20261;-83
2022/06/25 07:24:39;;;;;;;3.90;3.60;;;27.00;99.90;;;;;;5004916;28;20234;-83
2022/06/25 07:27:06;;;;;;;4.05;3.65;;;28.20;99.90;;;;;;5040938;28;20233;-83
2022/06/25 07:29:31;;;;;;;7.22;3.45;;;28.80;99.90;;;;;;4989763;28;20218;-84
2022/06/25 07:31:57;;;;;;;4.47;3.30;;;29.20;99.90;;;;;;5003733;28;20183;-83
2022/06/25 07:34:23;;;;;;;9.20;3.67;;;29.70;99.90;;;;;;5006803;28;20223;-85
2022/06/25 07:36:48;;;;;;;4.72;3.72;;;29.90;99.90;;;;;;4986745;28;20315;-84
2022/06/25 07:39:14;;;;;;;4.22;3.30;;;29.00;99.90;;;;;;5002460;28;20223;-82
2022/06/25 07:41:40;;;;;;;6.15;3.42;;;28.00;99.90;;;;;;5002857;28;20306;-83
2022/06/25 07:44:06;;;;;;;3.75;3.38;;;28.00;99.90;;;;;;5002206;28;20198;-84
2022/06/25 07:46:31;;;;;;;4.47;3.50;;;28.00;99.90;;;;;;5004646;28;20243;-86
2022/06/25 07:48:57;;;;;;;4.05;3.42;;;27.60;99.90;;;;;;5002499;28;20234;-84
2022/06/25 07:54:07;;;;;;;4.07;2.90;;;27.00;99.90;;;;;;5005241;28;20234;-84
2022/06/25 07:56:33;;;;;;;3.95;2.53;;;26.80;99.90;;;;;;5003829;28;20233;-82
2022/06/25 07:58:59;;;;;;;2.65;2.45;;;27.00;99.90;;;;;;5002441;28;20226;-84
2022/06/25 08:01:25;;;;;;;5.40;3.03;;;29.00;99.90;;;;;;5009941;28;20214;-86
2022/06/25 08:03:51;;;;;;;3.97;3.03;;;29.50;99.90;;;;;;5008170;28;20842;-84
2022/06/25 08:06:17;;;;;;;5.00;3.03;;;30.30;99.90;;;;;;5003417;28;20203;-85
2022/06/25 08:08:43;;;;;;;5.60;3.13;;;30.10;99.90;;;;;;5002037;28;20326;-84
2022/06/25 08:11:09;;;;;;;5.82;3.10;;;30.20;99.90;;;;;;5039335;28;20540;-85
2022/06/25 08:13:37;;;;;;;3.47;2.97;;;30.70;99.90;;;;;;5010073;28;20290;-84
2022/06/25 08:16:03;;;;;;;3.78;2.42;;;30.60;99.90;;;;;;5002860;28;20273;-86
2022/06/25 08:18:29;;;;;;;3.85;2.70;;;31.70;99.90;;;;;;5004208;28;20361;-85
2022/06/25 08:20:55;;;;;;;4.53;2.70;;;32.30;99.90;;;;;;5002418;28;20211;-85
2022/06/25 08:23:20;;;;;;;2.63;2.30;;;32.70;99.90;;;;;;5003057;28;20542;-84
2022/06/25 08:25:46;;;;;;;3.28;2.20;;;32.60;99.90;;;;;;5006076;28;20183;-85
2022/06/25 08:28:12;;;;;;;2.47;2.17;;;33.40;99.90;;;;;;5002860;28;20257;-84
2022/06/25 08:30:41;;;;;;;3.17;2.20;;;32.50;99.90;;;;;;5018874;28;20223;-84
2022/06/25 08:33:07;;;;;;;4.18;2.83;;;31.00;99.90;;;;;;5002379;28;20242;-84
2022/06/25 08:35:33;;;;;;;3.30;2.97;;;29.80;99.90;;;;;;5007741;28;20551;-82
2022/06/25 08:37:59;;;;;;;4.22;2.78;;;29.70;99.90;;;;;;5037650;28;20194;-84
2022/06/25 08:40:25;;;;;;;4.63;2.80;;;30.30;99.90;;;;;;5003998;28;20238;-85
2022/06/25 08:42:50;;;;;;;3.25;2.95;;;29.60;99.90;;;;;;5004924;28;20221;-85
2022/06/25 08:45:17;;;;;;;3.28;2.90;;;29.10;99.90;;;;;;5003303;28;20223;-83
2022/06/25 08:47:48;;;;;;;6.68;2.92;;;27.80;99.90;;;;;;5001035;28;20381;-83
2022/06/25 08:50:16;;;;;;;3.22;2.88;;;27.90;99.90;;;;;;5001475;28;20196;-83
2022/06/25 08:52:49;;;;;;;3.50;3.20;;;28.30;99.90;;;;;;5003211;28;20803;-84
2022/06/25 08:55:34;;;;;;;4.05;2.97;;;27.90;99.90;;;;;;5005538;28;20227;-84
2022/06/25 08:58:01;;;;;;;4.75;3.05;;;28.70;99.90;;;;;;5003388;28;20708;-83
2022/06/25 09:00:28;;;;;;;5.32;3.10;;;30.30;99.90;;;;;;5008037;28;20310;-86
2022/06/25 09:02:54;;;;;;;5.15;3.05;;;31.30;99.90;;;;;;5005127;28;20297;-85
2022/06/25 09:05:34;;;;;;;3.10;2.80;;;29.70;99.90;;;;;;5000913;28;20318;-85
2022/06/25 09:08:02;;;;;;;3.83;2.97;;;29.10;99.90;;;;;;5003915;28;20203;-84
2022/06/25 09:10:29;;;;;;;2.88;2.45;;;29.40;99.90;;;;;;5004290;28;20242;-84
2022/06/25 09:12:57;;;;;;;3.08;2.63;;;28.40;99.90;;;;;;5004365;28;20225;-85
2022/06/25 09:15:33;;;;;;;4.28;2.80;;;27.90;99.90;;;;;;5004379;28;20226;-84
2022/06/25 09:18:07;;;;;;;4.05;3.10;;;27.40;99.90;;;;;;5002813;28;20223;-81
2022/06/25 09:20:33;;;;;;;4.53;2.78;;;26.90;99.90;;;;;;5002004;28;20246;-83
2022/06/25 09:23:06;;;;;;;5.18;3.05;;;27.00;99.90;;;;;;5022274;28;20703;-84
2022/06/25 09:25:34;;;;;;;4.28;2.70;;;27.40;99.90;;;;;;5004813;28;20215;-86
2022/06/25 09:28:00;;;;;;;3.33;2.78;;;27.50;99.90;;;;;;5003055;28;20219;-85
2022/06/25 09:30:29;;;;;;;4.78;2.72;;;27.30;99.90;;;;;;5000642;28;20211;-85
2022/06/25 09:33:02;;;;;;;3.28;2.72;;;26.70;99.90;;;;;;5001789;28;20222;-83
2022/06/25 09:35:39;;;;;;;3.90;2.55;;;26.20;99.90;;;;;;4999761;28;20261;-84
2022/06/25 09:38:14;;;;;;;4.28;3.05;;;26.20;99.90;;;;;;5002163;28;20218;-86
2022/06/25 09:40:57;;;;;;;2.80;2.50;;;26.70;99.90;;;;;;5005513;28;20225;-85
2022/06/25 09:43:36;;;;;;;4.50;2.58;;;26.60;99.90;;;;;;5002664;28;21273;-85
2022/06/25 09:46:04;;;;;;;4.63;2.95;;;25.90;99.90;;;;;;4999572;28;20210;-84
2022/06/25 09:48:32;;;;;;;4.30;3.28;;;26.20;99.90;;;;;;4980535;28;20321;-84
2022/06/25 09:51:09;;;;;;;4.97;2.70;;;26.60;99.90;;;;;;4980466;28;20238;-82
2022/06/25 09:53:45;;;;;;;3.83;2.53;;;26.60;99.90;;;;;;4980833;28;20246;-84
2022/06/25 09:56:13;;;;;;;5.15;3.17;;;26.40;99.90;;;;;;4980739;28;20641;-83
2022/06/25 09:58:41;;;;;;;3.63;3.10;;;26.10;99.90;;;;;;4980533;28;20715;-84
2022/06/25 10:01:07;;;;;;;4.60;3.45;;;26.20;99.90;;;;;;4980479;28;20212;-84
2022/06/25 10:03:34;;;;;;;4.70;3.60;;;25.90;99.90;;;;;;4980297;28;20216;-83
2022/06/25 10:06:00;;;;;;;4.40;3.35;;;26.10;99.90;;;;;;4979307;28;20204;-84
2022/06/25 10:08:29;;;;;;;4.15;3.15;;;26.50;99.90;;;;;;4979785;28;20242;-83
2022/06/25 10:10:55;;;;;;;3.75;2.85;;;26.80;99.90;;;;;;4979425;28;20181;-84
2022/06/25 10:13:22;;;;;;;4.53;3.33;;;26.90;99.90;;;;;;4979792;28;20219;-83
2022/06/25 10:15:49;;;;;;;4.45;3.55;;;26.70;99.90;;;;;;4980650;28;20220;-85
2022/06/25 10:18:15;;;;;;;4.97;3.45;;;26.10;99.90;;;;;;4981090;28;20322;-84
2022/06/25 10:20:42;;;;;;;5.85;3.88;;;26.10;99.90;;;;;;4981410;28;20792;-84
2022/06/25 10:23:11;;;;;;;3.47;2.97;;;26.70;99.90;;;;;;4967349;28;20188;-86
2022/06/25 10:25:38;;;;;;;1.67;1.35;;;27.90;99.90;;;;;;4985358;28;20184;-86
2022/06/25 10:28:12;;;;;;;7.38;0.93;;;26.30;99.90;;;;;;4985836;28;20227;-86
2022/06/25 10:30:53;;;;;;;3.15;1.23;;;24.90;99.90;;;;;;4984419;28;20219;-87
2022/06/25 10:33:27;;;;;;;1.30;1.10;;;23.50;99.90;;;;;;4985182;28;20277;-84
2022/06/25 10:35:56;;;;;;;1.88;1.08;;;23.30;99.90;;;;;;4984804;28;20216;-85
2022/06/25 10:38:24;;;;;;;3.20;1.50;;;22.90;99.90;;;;;;5016064;28;20199;-84
2022/06/25 10:40:50;;;;;;;2.13;0.95;;;22.20;99.90;;;;;;4984543;28;20192;-84
2022/06/25 10:43:35;;;;;;;1.42;1.20;;;21.60;99.90;;;;;;4985083;28;20220;-84
2022/06/25 10:46:22;;;;;;;5.68;1.45;;;21.60;99.90;;;;;;4991136;28;20680;-84
2022/06/25 10:49:07;;;;;;;3.05;1.00;;;21.60;99.90;;;;;;4983928;28;20423;-84
2022/06/25 10:51:33;;;;;;;2.60;1.35;;;21.70;99.90;;;;;;4984339;28;20226;-84
2022/06/25 10:54:00;;;;;;;2.50;1.17;;;21.80;99.90;;;;;;4981578;28;21188;-84
2022/06/25 10:56:28;;;;;;;3.30;1.05;;;21.70;99.90;;;;;;4985388;28;20223;-83
2022/06/25 10:58:55;;;;;;;3.80;1.67;;;21.50;99.90;;;;;;4984283;28;20176;-84
2022/06/25 11:01:29;;;;;;;3.33;1.20;;;21.50;99.90;;;;;;4986637;28;20227;-86
2022/06/25 11:03:58;;;;;;;4.90;1.30;;;21.40;99.90;;;;;;4984279;28;20221;-85
2022/06/25 11:06:36;;;;;;;2.70;1.00;;;21.20;99.90;;;;;;4982963;28;20223;-82
2022/06/25 11:09:05;;;;;;;2.30;1.30;;;20.90;99.90;;;;;;4981600;28;20824;-83
2022/06/25 11:11:33;;;;;;;1.37;1.00;;;21.10;99.90;;;;;;4996191;28;20228;-84
2022/06/25 11:14:00;;;;;;;1.80;1.55;;;21.30;99.90;;;;;;4985420;28;20278;-86
2022/06/25 11:16:25;;;;;;;3.50;1.60;;;21.40;99.90;;;;;;4983022;28;20277;-84
2022/06/25 11:18:53;;;;;;;2.03;1.77;;;21.30;99.90;;;;;;4981850;28;20678;-85
2022/06/25 11:21:28;;;;;;;2.60;1.73;;;21.50;99.90;;;;;;4981148;28;20208;-85
2022/06/25 11:24:05;;;;;;;5.37;1.83;;;21.90;99.90;;;;;;4981079;28;20250;-85
2022/06/25 11:29:24;;;;;;;2.60;1.30;;;22.20;99.90;;;;;;4981670;28;20200;-84
2022/06/25 11:31:52;;;;;;;3.80;1.40;;;22.00;99.90;;;;;;5012231;28;20180;-85
2022/06/25 11:34:20;;;;;;;4.07;2.28;;;22.90;99.90;;;;;;5011323;28;20278;-84
2022/06/25 11:36:55;;;;;;;3.15;1.27;;;23.50;99.90;;;;;;4979673;28;20239;-85
2022/06/25 11:39:21;;;;;;;2.78;1.67;;;23.10;99.90;;;;;;4981479;28;20220;-85
2022/06/25 11:41:51;;;;;;;3.53;1.85;;;23.10;99.90;;;;;;4981441;28;20219;-85
2022/06/25 11:44:18;;;;;;;4.75;1.50;;;23.40;99.90;;;;;;4980829;28;20240;-84
2022/06/25 11:46:44;;;;;;;4.18;1.70;;;23.90;99.90;;;;;;4992114;28;21132;-84
2022/06/25 11:49:11;;;;;;;6.70;2.55;;;24.10;99.90;;;;;;5038411;28;20235;-84
2022/06/25 11:51:46;;;;;;;5.00;2.00;;;24.20;99.90;;;;;;5010495;28;20218;-84
2022/06/25 11:54:15;;;;;;;5.07;2.10;;;24.80;99.90;;;;;;5007826;28;20226;-85
2022/06/25 11:56:53;;;;;;;4.80;1.95;;;24.10;99.90;;;;;;5009772;28;20723;-85
2022/06/25 11:59:33;;;;;;;1.95;1.60;;;23.40;99.90;;;;;;5008143;28;20289;-85
2022/06/25 12:01:59;;;;;;;2.33;1.52;;;22.80;99.90;;;;;;5009258;28;20185;-85
2022/06/25 12:04:26;;;;;;;4.65;2.05;;;22.80;99.90;;;;;;5003814;28;20680;-82
2022/06/25 12:06:52;;;;;;;4.72;2.65;;;22.80;99.90;;;;;;5003374;28;20219;-83
2022/06/25 12:09:20;;;;;;;4.40;2.35;;;23.10;99.90;;;;;;5007278;28;20229;-86
2022/06/25 12:11:55;;;;;;;3.10;2.15;;;22.70;99.90;;;;;;5006552;28;20219;-85
2022/06/25 12:14:23;;;;;;;4.13;2.20;;;22.70;99.90;;;;;;5035404;28;20245;-86
2022/06/25 12:16:49;;;;;;;7.68;2.50;;;22.60;99.90;;;;;;5008772;28;20468;-85
2022/06/25 12:19:16;;;;;;;6.60;2.72;;;22.40;99.90;;;;;;5006185;28;20318;-83
2022/06/25 12:21:42;;;;;;;3.17;2.10;;;22.30;99.90;;;;;;5011664;28;20298;-83
2022/06/25 12:24:12;;;;;;;6.60;3.08;;;22.70;99.90;;;;;;5006665;28;20237;-83
2022/06/25 12:26:41;;;;;;;5.43;2.90;;;22.80;99.90;;;;;;5034488;28;20242;-84
2022/06/25 12:29:13;;;;;;;4.72;2.58;;;23.00;99.90;;;;;;5002971;28;21004;-82
2022/06/25 12:31:40;;;;;;;2.20;1.90;;;23.00;99.90;;;;;;5006470;28;20219;-84
2022/06/25 12:34:07;;;;;;;2.90;1.80;;;23.30;99.90;;;;;;5004886;28;20296;-84
2022/06/25 12:36:38;;;;;;;5.85;2.08;;;23.40;99.90;;;;;;5003757;28;20214;-83
2022/06/25 12:39:37;;;;;;;3.83;2.00;;;24.10;99.90;;;;;;5004858;28;20699;-83
2022/06/25 12:42:08;;;;;;;4.40;2.53;;;24.70;99.90;;;;;;5002448;28;20231;-85
2022/06/25 12:44:37;;;;;;;2.58;1.92;;;25.10;99.90;;;;;;5002006;28;20211;-84
2022/06/25 12:47:08;;;;;;;11.20;1.73;;;24.50;99.90;;;;;;5004085;28;20231;-84
2022/06/25 12:49:52;;;;;;;4.55;2.00;;;24.20;99.90;;;;;;5038696;28;20274;-85
2022/06/25 12:52:24;;;;;;;2.40;1.70;;;23.70;99.90;;;;;;5002770;28;20234;-84
2022/06/25 12:54:53;;;;;;;2.75;1.75;;;23.90;99.90;;;;;;5003069;28;20301;-84
2022/06/25 12:57:25;;;;;;;5.10;1.90;;;24.10;99.90;;;;;;5009351;28;20219;-86